Kezdőlap
METAR-TAF:

METAR-TAF

Repülőterek :

South Wood County Airport (Alexander Field)

Wisconsin Rapids, Wisconsin, Amerikai Egyesült Államok

földrajzi szélesség: 44-21-33N, földrajzi hosszúság: 089-50-13W, magasság: 311 m

Jelenlegi meteorológiai megfigyelések

A jelentés 32 perccel ezelõtt készült, 17:54 UTC
Nyugati szél 10 kt
Hőmérséklet 11°C
Páratartalom 76%
Légköri nyomás 1017 hPa
Látótávolság: 16.1 km
Kevés felhő 2000 lábon
Szakadozott felhőzet 2800 lábon
Borult 5500 lábon
enyhe esõ

METAR: KISW 181754Z AUTO 26010KT 10SM -RA FEW020 BKN028 OVC055 11/07 A3003 RMK AO2 SLP174 P0001 60002 T01060067 10106 20056 58007

Idő: 13:26 (18:26 UTC)


TAF: hiányzik

Meteorológiai megfigyelések és előrejelzések több, mint 4000 repülőtéren (METAR és TAF jelentéseket).

A térképen piros és sárga pontok jelzik az elérhető meteorológiai állomásokat.

Mozgassa az egeret a pont fölött, hogy megjelenjen az állomás neve.

Azután kattintson az időjárási megfigyelések és előrejelzések megtekintéséhez.

A térkép megváltoztatása: kattintson a fekete keresztel jelölt zöld gombra ráközelítéshez, a vonallal jelölt zöld gombra távolításhoz, vagy a zöld nyilakra a szomszédos térképek eléréséhez.


METAR-TAF: